^^
Saratoga-Weather Station Historical Data
Daily Summary for August 17, 2022 Units:  Both    English   Metric
Daily Weekly Monthly Yearly Custom
  High: Low: Average:
Temperature: 84.4 °F /  29.1 °C 64.9 °F /  18.3 °C 73.2 °F /  22.9 °C
Dew Point: 64.9 °F /  18.3 °C 58.8 °F /  14.9 °C 61 °F /  16.1 °C
Humidity: 88% 44% 67%
Wind Speed: 8.1mph /  13km/h - 1.8mph /  2.9km/h
Wind Gust: 9mph /  14.5km/h - -
Wind- - WSW
Pressure: 29.8 in /  1010.2 hPa 29.8 in /  1007.5 hPa -
Precipitation: 0 in /  0.0 mm    
Historical Graphs
 
 
Tabular Data for August 17, 2022
Time Temperature Dew Point Pressure Wind Wind Speed Wind Gust Humidity Rainfall Rate (Hourly) solar
00:02 68.4 °F /  20.2 °C 59 °F /  15 °C 29.8in /  1008.1hPa Calm   1mph /  1.6km/h 72% 0in /  0.0mm 0 W/m2
00:07 68.2 °F /  20.1 °C 58.8 °F /  14.9 °C 29.8in /  1008.1hPa Calm     72% 0in /  0.0mm 0 W/m2
00:12 68.2 °F /  20.1 °C 59.2 °F /  15.1 °C 29.8in /  1008.1hPa Calm     73% 0in /  0.0mm 0 W/m2
00:17 67.8 °F /  19.9 °C 58.8 °F /  14.9 °C 29.8in /  1008.1hPa Calm     73% 0in /  0.0mm 0 W/m2
00:22 67.6 °F /  19.8 °C 59 °F /  15 °C 29.8in /  1008.1hPa Calm     74% 0in /  0.0mm 0 W/m2
00:27 67.6 °F /  19.8 °C 59 °F /  15 °C 29.8in /  1008.1hPa Calm     74% 0in /  0.0mm 0 W/m2
00:32 67.6 °F /  19.8 °C 59 °F /  15 °C 29.8in /  1008.1hPa SW 0.9mph /  1.4km/h 1mph /  1.6km/h 74% 0in /  0.0mm 0 W/m2
00:37 67.6 °F /  19.8 °C 59 °F /  15 °C 29.8in /  1008.1hPa Calm   1mph /  1.6km/h 74% 0in /  0.0mm 0 W/m2
00:42 67.5 °F /  19.7 °C 59.2 °F /  15.1 °C 29.8in /  1008.1hPa Calm     75% 0in /  0.0mm 0 W/m2
00:47 67.5 °F /  19.7 °C 59.2 °F /  15.1 °C 29.8in /  1008.1hPa Calm   1mph /  1.6km/h 75% 0in /  0.0mm 0 W/m2
00:52 67.5 °F /  19.7 °C 59.2 °F /  15.1 °C 29.8in /  1008.1hPa Calm     75% 0in /  0.0mm 0 W/m2
00:57 67.5 °F /  19.7 °C 59.5 °F /  15.3 °C 29.8in /  1008.1hPa Calm   1mph /  1.6km/h 76% 0in /  0.0mm 0 W/m2
01:02 67.6 °F /  19.8 °C 59.4 °F /  15.2 °C 29.8in /  1008.1hPa Calm     75% 0in /  0.0mm 0 W/m2
01:07 67.6 °F /  19.8 °C 59.4 °F /  15.2 °C 29.8in /  1008.1hPa Calm   1mph /  1.6km/h 75% 0in /  0.0mm 0 W/m2
01:12 67.6 °F /  19.8 °C 59.4 °F /  15.2 °C 29.8in /  1008.1hPa Calm     75% 0in /  0.0mm 0 W/m2
01:17 67.6 °F /  19.8 °C 59.7 °F /  15.4 °C 29.8in /  1008.1hPa SW 0.9mph /  1.4km/h 1mph /  1.6km/h 76% 0in /  0.0mm 0 W/m2
01:22 67.6 °F /  19.8 °C 59.7 °F /  15.4 °C 29.8in /  1008.1hPa Calm     76% 0in /  0.0mm 0 W/m2
01:27 67.6 °F /  19.8 °C 59.7 °F /  15.4 °C 29.8in /  1008.1hPa Calm     76% 0in /  0.0mm 0 W/m2
01:32 67.6 °F /  19.8 °C 59.7 °F /  15.4 °C 29.8in /  1008.1hPa Calm     76% 0in /  0.0mm 0 W/m2
01:37 67.6 °F /  19.8 °C 59.7 °F /  15.4 °C 29.8in /  1008.1hPa SW 2mph /  3.2km/h 2mph /  3.2km/h 76% 0in /  0.0mm 0 W/m2
01:42 67.6 °F /  19.8 °C 59.7 °F /  15.4 °C 29.8in /  1008.1hPa Calm   2mph /  3.2km/h 76% 0in /  0.0mm 0 W/m2
01:47 67.6 °F /  19.8 °C 59.7 °F /  15.4 °C 29.8in /  1008.1hPa Calm   1mph /  1.6km/h 76% 0in /  0.0mm 0 W/m2
01:52 67.6 °F /  19.8 °C 59.7 °F /  15.4 °C 29.8in /  1008.1hPa Calm   1mph /  1.6km/h 76% 0in /  0.0mm 0 W/m2
01:57 67.6 °F /  19.8 °C 59.7 °F /  15.4 °C 29.8in /  1007.8hPa Calm     76% 0in /  0.0mm 0 W/m2
02:02 67.5 °F /  19.7 °C 59.5 °F /  15.3 °C 29.8in /  1007.8hPa Calm     76% 0in /  0.0mm 0 W/m2
02:07 67.5 °F /  19.7 °C 59.5 °F /  15.3 °C 29.8in /  1008.1hPa East 0.9mph /  1.4km/h 2mph /  3.2km/h 76% 0in /  0.0mm 0 W/m2
02:12 67.5 °F /  19.7 °C 59.5 °F /  15.3 °C 29.8in /  1008.1hPa Calm     76% 0in /  0.0mm 0 W/m2
02:17 67.5 °F /  19.7 °C 59.5 °F /  15.3 °C 29.8in /  1007.8hPa Calm     76% 0in /  0.0mm 0 W/m2
02:22 67.5 °F /  19.7 °C 59.5 °F /  15.3 °C 29.8in /  1007.8hPa Calm     76% 0in /  0.0mm 0 W/m2
02:27 67.5 °F /  19.7 °C 60.1 °F /  15.6 °C 29.8in /  1007.8hPa Calm     77% 0in /  0.0mm 0 W/m2
02:32 67.6 °F /  19.8 °C 59.7 °F /  15.4 °C 29.8in /  1007.8hPa Calm     76% 0in /  0.0mm 0 W/m2
02:37 67.6 °F /  19.8 °C 59.7 °F /  15.4 °C 29.8in /  1007.8hPa Calm     76% 0in /  0.0mm 0 W/m2
02:42 67.6 °F /  19.8 °C 59.7 °F /  15.4 °C 29.8in /  1007.8hPa Calm     76% 0in /  0.0mm 0 W/m2
02:47 67.8 °F /  19.9 °C 59.9 °F /  15.5 °C 29.8in /  1007.8hPa Calm     76% 0in /  0.0mm 0 W/m2
02:52 67.8 °F /  19.9 °C 59.9 °F /  15.5 °C 29.8in /  1007.8hPa Calm     76% 0in /  0.0mm 0 W/m2
02:57 67.8 °F /  19.9 °C 59.9 °F /  15.5 °C 29.8in /  1007.8hPa Calm     76% 0in /  0.0mm 0 W/m2
03:02 67.8 °F /  19.9 °C 59.9 °F /  15.5 °C 29.8in /  1007.8hPa Calm     76% 0in /  0.0mm 0 W/m2
03:07 67.8 °F /  19.9 °C 59.9 °F /  15.5 °C 29.8in /  1007.8hPa Calm     76% 0in /  0.0mm 0 W/m2
03:12 67.8 °F /  19.9 °C 59.9 °F /  15.5 °C 29.8in /  1007.8hPa Calm     76% 0in /  0.0mm 0 W/m2
03:17 67.8 °F /  19.9 °C 59.9 °F /  15.5 °C 29.8in /  1007.8hPa Calm     76% 0in /  0.0mm 0 W/m2
03:22 67.8 °F /  19.9 °C 59.9 °F /  15.5 °C 29.8in /  1007.8hPa Calm     76% 0in /  0.0mm 0 W/m2
03:27 67.6 °F /  19.8 °C 59.7 °F /  15.4 °C 29.8in /  1007.8hPa Calm     76% 0in /  0.0mm 0 W/m2
03:32 67.6 °F /  19.8 °C 59.7 °F /  15.4 °C 29.8in /  1007.8hPa Calm     76% 0in /  0.0mm 0 W/m2
03:37 67.5 °F /  19.7 °C 59.5 °F /  15.3 °C 29.8in /  1007.8hPa Calm     76% 0in /  0.0mm 0 W/m2
03:42 67.5 °F /  19.7 °C 59.5 °F /  15.3 °C 29.8in /  1008.1hPa Calm     76% 0in /  0.0mm 0 W/m2
03:47 67.5 °F /  19.7 °C 59.2 °F /  15.1 °C 29.8in /  1008.5hPa NW 2mph /  3.2km/h 7mph /  11.3km/h 75% 0in /  0.0mm 0 W/m2
03:52 68.7 °F /  20.4 °C 59.4 °F /  15.2 °C 29.8in /  1008.5hPa North 0.9mph /  1.4km/h 2mph /  3.2km/h 72% 0in /  0.0mm 0 W/m2
03:57 69.3 °F /  20.7 °C 59.5 °F /  15.3 °C 29.8in /  1008.5hPa SSW 0.9mph /  1.4km/h 7mph /  11.3km/h 71% 0in /  0.0mm 0 W/m2
04:02 70 °F /  21.1 °C 59.4 °F /  15.2 °C 29.8in /  1008.5hPa NW 2.9mph /  4.7km/h 5mph /  8km/h 69% 0in /  0.0mm 0 W/m2
04:07 70.3 °F /  21.3 °C 59.4 °F /  15.2 °C 29.8in /  1008.5hPa WNW 0.9mph /  1.4km/h 1mph /  1.6km/h 68% 0in /  0.0mm 0 W/m2
04:12 70.7 °F /  21.5 °C 59.5 °F /  15.3 °C 29.8in /  1008.5hPa NNW 0.9mph /  1.4km/h 5mph /  8km/h 68% 0in /  0.0mm 0 W/m2
04:17 70.9 °F /  21.6 °C 59.7 °F /  15.4 °C 29.8in /  1008.5hPa NNW 2.9mph /  4.7km/h 6mph /  9.7km/h 68% 0in /  0.0mm 0 W/m2
04:22 70.5 °F /  21.4 °C 59.4 °F /  15.2 °C 29.8in /  1008.5hPa NNW 2.9mph /  4.7km/h 4mph /  6.4km/h 68% 0in /  0.0mm 0 W/m2
04:28 70.3 °F /  21.3 °C 59.7 °F /  15.4 °C 29.8in /  1008.5hPa WSW 4mph /  6.4km/h 4mph /  6.4km/h 69% 0in /  0.0mm 0 W/m2
04:33 70.2 °F /  21.2 °C 59.9 °F /  15.5 °C 29.8in /  1008.8hPa SW 2mph /  3.2km/h 6mph /  9.7km/h 70% 0in /  0.0mm 0 W/m2
04:38 70 °F /  21.1 °C 60.1 °F /  15.6 °C 29.8in /  1008.5hPa NW 4mph /  6.4km/h 9mph /  14.5km/h 71% 0in /  0.0mm 0 W/m2
04:43 69.8 °F /  21 °C 60.4 °F /  15.8 °C 29.8in /  1008.8hPa WNW 6.9mph /  11.1km/h 7mph /  11.3km/h 72% 0in /  0.0mm 0 W/m2
04:48 69.4 °F /  20.8 °C 60.4 °F /  15.8 °C 29.8in /  1008.5hPa WSW 2mph /  3.2km/h 7mph /  11.3km/h 73% 0in /  0.0mm 0 W/m2
04:53 69.3 °F /  20.7 °C 60.6 °F /  15.9 °C 29.8in /  1008.5hPa West 2.9mph /  4.7km/h 7mph /  11.3km/h 74% 0in /  0.0mm 0 W/m2
04:58 68.7 °F /  20.4 °C 60.4 °F /  15.8 °C 29.8in /  1008.5hPa West 2mph /  3.2km/h 6mph /  9.7km/h 75% 0in /  0.0mm 0 W/m2
05:03 68.5 °F /  20.3 °C 60.6 °F /  15.9 °C 29.8in /  1008.1hPa West 2.9mph /  4.7km/h 7mph /  11.3km/h 76% 0in /  0.0mm 0 W/m2
05:08 67.8 °F /  19.9 °C 61 °F /  16.1 °C 29.8in /  1008.1hPa WNW 4.9mph /  7.9km/h 9mph /  14.5km/h 79% 0in /  0.0mm 0 W/m2
05:13 67.5 °F /  19.7 °C 61.2 °F /  16.2 °C 29.8in /  1008.1hPa West 2mph /  3.2km/h 4mph /  6.4km/h 80% 0in /  0.0mm 0 W/m2
05:18 66.9 °F /  19.4 °C 61 °F /  16.1 °C 29.8in /  1008.1hPa WSW 2.9mph /  4.7km/h 8mph /  12.9km/h 81% 0in /  0.0mm 0 W/m2
05:23 66.7 °F /  19.3 °C 61.3 °F /  16.3 °C 29.8in /  1008.1hPa WNW 2mph /  3.2km/h 4mph /  6.4km/h 83% 0in /  0.0mm 0 W/m2
05:28 66.7 °F /  19.3 °C 61.3 °F /  16.3 °C 29.8in /  1008.1hPa WSW 2.9mph /  4.7km/h 8mph /  12.9km/h 83% 0in /  0.0mm 0 W/m2
05:33 66.6 °F /  19.2 °C 61.2 °F /  16.2 °C 29.8in /  1008.1hPa NW 2mph /  3.2km/h 2mph /  3.2km/h 83% 0in /  0.0mm 0 W/m2
05:38 66.6 °F /  19.2 °C 61.2 °F /  16.2 °C 29.8in /  1008.1hPa West 0.9mph /  1.4km/h 7mph /  11.3km/h 83% 0in /  0.0mm 0 W/m2
05:43 66.6 °F /  19.2 °C 61.5 °F /  16.4 °C 29.8in /  1008.1hPa Calm     84% 0in /  0.0mm 0 W/m2
05:48 66.6 °F /  19.2 °C 61.5 °F /  16.4 °C 29.8in /  1008.1hPa West 0.9mph /  1.4km/h 7mph /  11.3km/h 84% 0in /  0.0mm 0 W/m2
05:53 66.4 °F /  19.1 °C 61.3 °F /  16.3 °C 29.8in /  1008.1hPa West 2mph /  3.2km/h 2mph /  3.2km/h 84% 0in /  0.0mm 0 W/m2
05:58 66.4 °F /  19.1 °C 61.3 °F /  16.3 °C 29.8in /  1008.1hPa WSW 2.9mph /  4.7km/h 4mph /  6.4km/h 84% 0in /  0.0mm 0 W/m2
06:03 66.4 °F /  19.1 °C 61.3 °F /  16.3 °C 29.8in /  1008.1hPa WNW 2mph /  3.2km/h 4mph /  6.4km/h 84% 0in /  0.0mm 0 W/m2
06:08 66.4 °F /  19.1 °C 61.3 °F /  16.3 °C 29.8in /  1008.1hPa Calm     84% 0in /  0.0mm 0 W/m2
06:13 66.4 °F /  19.1 °C 61.3 °F /  16.3 °C 29.8in /  1008.1hPa NW 2mph /  3.2km/h 4mph /  6.4km/h 84% 0in /  0.0mm 0 W/m2
06:18 66.4 °F /  19.1 °C 61.7 °F /  16.5 °C 29.8in /  1008.1hPa West 2mph /  3.2km/h 6mph /  9.7km/h 85% 0in /  0.0mm 0 W/m2
06:23 66 °F /  18.9 °C 61.7 °F /  16.5 °C 29.8in /  1007.8hPa NW 2.9mph /  4.7km/h 7mph /  11.3km/h 86% 0in /  0.0mm 0 W/m2
06:28 65.7 °F /  18.7 °C 61.3 °F /  16.3 °C 29.8in /  1007.8hPa WNW 2mph /  3.2km/h 6mph /  9.7km/h 86% 0in /  0.0mm 0 W/m2
06:33 65.7 °F /  18.7 °C 61.7 °F /  16.5 °C 29.8in /  1007.8hPa NW 2.9mph /  4.7km/h 7mph /  11.3km/h 87% 0in /  0.0mm 0 W/m2
06:38 65.5 °F /  18.6 °C 61.5 °F /  16.4 °C 29.8in /  1007.8hPa NNW 2.9mph /  4.7km/h 5mph /  8km/h 87% 0in /  0.0mm 0 W/m2
06:43 65.3 °F /  18.5 °C 61.3 °F /  16.3 °C 29.8in /  1007.5hPa West 6.9mph /  11.1km/h 7mph /  11.3km/h 87% 0in /  0.0mm 0 W/m2
06:48 65.3 °F /  18.5 °C 61.3 °F /  16.3 °C 29.8in /  1007.5hPa WNW 2mph /  3.2km/h 3mph /  4.8km/h 87% 0in /  0.0mm 0 W/m2
06:53 65.1 °F /  18.4 °C 61.5 °F /  16.4 °C 29.8in /  1007.5hPa WNW 2mph /  3.2km/h 7mph /  11.3km/h 88% 0in /  0.0mm 5 W/m2
06:58 65.1 °F /  18.4 °C 61.5 °F /  16.4 °C 29.8in /  1007.5hPa WNW 0.9mph /  1.4km/h 3mph /  4.8km/h 88% 0in /  0.0mm 7 W/m2
07:03 65.1 °F /  18.4 °C 61.5 °F /  16.4 °C 29.8in /  1007.5hPa West 2mph /  3.2km/h 4mph /  6.4km/h 88% 0in /  0.0mm 5 W/m2
07:08 65.1 °F /  18.4 °C 61.5 °F /  16.4 °C 29.8in /  1007.5hPa West 2.9mph /  4.7km/h 3mph /  4.8km/h 88% 0in /  0.0mm 5 W/m2
07:13 65.1 °F /  18.4 °C 61.5 °F /  16.4 °C 29.8in /  1007.5hPa WNW 2mph /  3.2km/h 4mph /  6.4km/h 88% 0in /  0.0mm 0 W/m2
07:18 65.1 °F /  18.4 °C 61.5 °F /  16.4 °C 29.8in /  1007.5hPa WSW 2.9mph /  4.7km/h 4mph /  6.4km/h 88% 0in /  0.0mm 0 W/m2
07:23 64.9 °F /  18.3 °C 61.3 °F /  16.3 °C 29.8in /  1007.5hPa West 2.9mph /  4.7km/h 4mph /  6.4km/h 88% 0in /  0.0mm 0 W/m2
07:28 64.9 °F /  18.3 °C 61.3 °F /  16.3 °C 29.8in /  1007.5hPa West 2mph /  3.2km/h 3mph /  4.8km/h 88% 0in /  0.0mm 0 W/m2
07:33 65.1 °F /  18.4 °C 61.5 °F /  16.4 °C 29.8in /  1007.5hPa WNW 0.9mph /  1.4km/h 2mph /  3.2km/h 88% 0in /  0.0mm 0 W/m2
07:38 65.1 °F /  18.4 °C 61.5 °F /  16.4 °C 29.8in /  1007.5hPa West 2mph /  3.2km/h 2mph /  3.2km/h 88% 0in /  0.0mm 5 W/m2
07:43 65.3 °F /  18.5 °C 61.7 °F /  16.5 °C 29.8in /  1007.8hPa West 2mph /  3.2km/h 2mph /  3.2km/h 88% 0in /  0.0mm 5 W/m2
07:48 65.5 °F /  18.6 °C 61.5 °F /  16.4 °C 29.8in /  1007.8hPa West 2mph /  3.2km/h 2mph /  3.2km/h 87% 0in /  0.0mm 12 W/m2
07:53 65.7 °F /  18.7 °C 61.7 °F /  16.5 °C 29.8in /  1008.1hPa Calm   2mph /  3.2km/h 87% 0in /  0.0mm 23 W/m2
07:58 65.8 °F /  18.8 °C 61.9 °F /  16.6 °C 29.8in /  1008.5hPa West 0.9mph /  1.4km/h 2mph /  3.2km/h 87% 0in /  0.0mm 33 W/m2
08:03 65.8 °F /  18.8 °C 61.9 °F /  16.6 °C 29.8in /  1008.5hPa WNW 0.9mph /  1.4km/h 3mph /  4.8km/h 87% 0in /  0.0mm 32 W/m2
08:08 65.8 °F /  18.8 °C 61.9 °F /  16.6 °C 29.8in /  1008.5hPa Calm   1mph /  1.6km/h 87% 0in /  0.0mm 28 W/m2
08:13 65.8 °F /  18.8 °C 61.9 °F /  16.6 °C 29.8in /  1008.5hPa WNW 2mph /  3.2km/h 3mph /  4.8km/h 87% 0in /  0.0mm 42 W/m2
08:18 65.8 °F /  18.8 °C 61.9 °F /  16.6 °C 29.8in /  1008.5hPa WNW 0.9mph /  1.4km/h 2mph /  3.2km/h 87% 0in /  0.0mm 46 W/m2
08:23 66 °F /  18.9 °C 62.1 °F /  16.7 °C 29.8in /  1008.5hPa WNW 3mph /  4.8km/h 3mph /  4.8km/h 87% 0in /  0.0mm 40 W/m2
08:28 66 °F /  18.9 °C 62.1 °F /  16.7 °C 29.8in /  1008.5hPa Calm     87% 0in /  0.0mm 47 W/m2
08:33 66.4 °F /  19.1 °C 62.4 °F /  16.9 °C 29.8in /  1008.5hPa Calm     87% 0in /  0.0mm 62 W/m2
08:38 66.6 °F /  19.2 °C 62.6 °F /  17 °C 29.8in /  1008.5hPa Calm     87% 0in /  0.0mm 90 W/m2
08:43 66.7 °F /  19.3 °C 62.4 °F /  16.9 °C 29.8in /  1008.5hPa Calm     86% 0in /  0.0mm 107 W/m2
08:48 67.1 °F /  19.5 °C 62.8 °F /  17.1 °C 29.8in /  1008.5hPa WNW 2mph /  3.2km/h 2mph /  3.2km/h 86% 0in /  0.0mm 91 W/m2
08:53 67.5 °F /  19.7 °C 62.8 °F /  17.1 °C 29.8in /  1008.5hPa NW 2mph /  3.2km/h 2mph /  3.2km/h 85% 0in /  0.0mm 104 W/m2
08:58 67.6 °F /  19.8 °C 63 °F /  17.2 °C 29.8in /  1008.5hPa West 0.9mph /  1.4km/h 2mph /  3.2km/h 85% 0in /  0.0mm 105 W/m2
09:03 67.8 °F /  19.9 °C 62.8 °F /  17.1 °C 29.8in /  1008.5hPa WNW 2mph /  3.2km/h 2mph /  3.2km/h 84% 0in /  0.0mm 102 W/m2
09:08 68 °F /  20 °C 63 °F /  17.2 °C 29.8in /  1008.5hPa WNW 2mph /  3.2km/h 3mph /  4.8km/h 84% 0in /  0.0mm 98 W/m2
09:13 68.2 °F /  20.1 °C 63.1 °F /  17.3 °C 29.8in /  1008.5hPa West 4mph /  6.4km/h 4mph /  6.4km/h 84% 0in /  0.0mm 130 W/m2
09:18 68.4 °F /  20.2 °C 63.3 °F /  17.4 °C 29.8in /  1008.8hPa SW 2mph /  3.2km/h 7mph /  11.3km/h 84% 0in /  0.0mm 169 W/m2
09:23 68.4 °F /  20.2 °C 63.3 °F /  17.4 °C 29.8in /  1008.8hPa West 2mph /  3.2km/h 6mph /  9.7km/h 84% 0in /  0.0mm 171 W/m2
09:28 68.4 °F /  20.2 °C 63.7 °F /  17.6 °C 29.8in /  1008.8hPa WSW 2.9mph /  4.7km/h 5mph /  8km/h 85% 0in /  0.0mm 169 W/m2
09:33 68.5 °F /  20.3 °C 63.9 °F /  17.7 °C 29.8in /  1008.8hPa NW 2.9mph /  4.7km/h 9mph /  14.5km/h 85% 0in /  0.0mm 230 W/m2
09:38 68.7 °F /  20.4 °C 63.7 °F /  17.6 °C 29.8in /  1008.8hPa West 4mph /  6.4km/h 4mph /  6.4km/h 84% 0in /  0.0mm 246 W/m2
09:43 68.9 °F /  20.5 °C 63.9 °F /  17.7 °C 29.8in /  1008.8hPa NW 4mph /  6.4km/h 8mph /  12.9km/h 84% 0in /  0.0mm 237 W/m2
09:48 69.1 °F /  20.6 °C 64 °F /  17.8 °C 29.8in /  1008.8hPa NW 2.9mph /  4.7km/h 4mph /  6.4km/h 84% 0in /  0.0mm 248 W/m2
09:53 69.3 °F /  20.7 °C 63.9 °F /  17.7 °C 29.8in /  1008.8hPa NNW 2.9mph /  4.7km/h 5mph /  8km/h 83% 0in /  0.0mm 232 W/m2
09:58 69.4 °F /  20.8 °C 63.7 °F /  17.6 °C 29.8in /  1008.8hPa NW 0.9mph /  1.4km/h 6mph /  9.7km/h 82% 0in /  0.0mm 262 W/m2
10:03 69.6 °F /  20.9 °C 63.9 °F /  17.7 °C 29.8in /  1008.8hPa WNW 4.9mph /  7.9km/h 5mph /  8km/h 82% 0in /  0.0mm 202 W/m2
10:08 69.6 °F /  20.9 °C 63.9 °F /  17.7 °C 29.8in /  1008.8hPa WSW 2.9mph /  4.7km/h 5mph /  8km/h 82% 0in /  0.0mm 237 W/m2
10:13 69.8 °F /  21 °C 64 °F /  17.8 °C 29.8in /  1009.1hPa West 2.9mph /  4.7km/h 7mph /  11.3km/h 82% 0in /  0.0mm 364 W/m2
10:18 70.2 °F /  21.2 °C 64 °F /  17.8 °C 29.8in /  1009.1hPa NW 2.9mph /  4.7km/h 4mph /  6.4km/h 81% 0in /  0.0mm 322 W/m2
10:23 70.5 °F /  21.4 °C 63.7 °F /  17.6 °C 29.8in /  1008.8hPa NW 0.9mph /  1.4km/h 7mph /  11.3km/h 79% 0in /  0.0mm 536 W/m2
10:28 70.7 °F /  21.5 °C 63.5 °F /  17.5 °C 29.8in /  1009.1hPa WSW 2mph /  3.2km/h 6mph /  9.7km/h 78% 0in /  0.0mm 167 W/m2
10:33 70.7 °F /  21.5 °C 63.5 °F /  17.5 °C 29.8in /  1009.1hPa WNW 2mph /  3.2km/h 4mph /  6.4km/h 78% 0in /  0.0mm 190 W/m2
10:39 70.9 °F /  21.6 °C 63.7 °F /  17.6 °C 29.8in /  1009.1hPa West 0.9mph /  1.4km/h 6mph /  9.7km/h 78% 0in /  0.0mm 260 W/m2
10:44 71.1 °F /  21.7 °C 63.9 °F /  17.7 °C 29.8in /  1009.1hPa West 0.9mph /  1.4km/h 2mph /  3.2km/h 78% 0in /  0.0mm 306 W/m2
10:49 71.4 °F /  21.9 °C 63.9 °F /  17.7 °C 29.8in /  1009.5hPa WNW 0.9mph /  1.4km/h 2mph /  3.2km/h 77% 0in /  0.0mm 225 W/m2
10:54 71.8 °F /  22.1 °C 63.9 °F /  17.7 °C 29.8in /  1009.5hPa Calm   2mph /  3.2km/h 76% 0in /  0.0mm 253 W/m2
10:59 72.1 °F /  22.3 °C 63.9 °F /  17.7 °C 29.8in /  1009.5hPa East 2mph /  3.2km/h 2mph /  3.2km/h 75% 0in /  0.0mm 264 W/m2
11:04 72.7 °F /  22.6 °C 63.9 °F /  17.7 °C 29.8in /  1009.5hPa East 2mph /  3.2km/h 4mph /  6.4km/h 74% 0in /  0.0mm 339 W/m2
11:09 73 °F /  22.8 °C 63.9 °F /  17.7 °C 29.8in /  1009.5hPa ENE 0.9mph /  1.4km/h 3mph /  4.8km/h 73% 0in /  0.0mm 274 W/m2
11:14 73.2 °F /  22.9 °C 64 °F /  17.8 °C 29.8in /  1009.1hPa East 4mph /  6.4km/h 4mph /  6.4km/h 73% 0in /  0.0mm 341 W/m2
11:19 73.9 °F /  23.3 °C 64.4 °F /  18 °C 29.8in /  1009.1hPa East 2.9mph /  4.7km/h 3mph /  4.8km/h 72% 0in /  0.0mm 870 W/m2
11:24 74.5 °F /  23.6 °C 64.9 °F /  18.3 °C 29.8in /  1009.1hPa Calm   2mph /  3.2km/h 72% 0in /  0.0mm 329 W/m2
11:29 74.8 °F /  23.8 °C 64.8 °F /  18.2 °C 29.8in /  1009.1hPa East 2mph /  3.2km/h 6mph /  9.7km/h 71% 0in /  0.0mm 366 W/m2
11:34 75 °F /  23.9 °C 64.9 °F /  18.3 °C 29.8in /  1009.1hPa NE 0.9mph /  1.4km/h 2mph /  3.2km/h 71% 0in /  0.0mm 726 W/m2
11:39 75.6 °F /  24.2 °C 64.2 °F /  17.9 °C 29.8in /  1009.1hPa North 2mph /  3.2km/h 4mph /  6.4km/h 68% 0in /  0.0mm 812 W/m2
11:44 75.7 °F /  24.3 °C 64.4 °F /  18 °C 29.8in /  1009.1hPa ENE 4mph /  6.4km/h 8mph /  12.9km/h 68% 0in /  0.0mm 422 W/m2
11:49 75.7 °F /  24.3 °C 62.8 °F /  17.1 °C 29.8in /  1009.1hPa WSW 2.9mph /  4.7km/h 4mph /  6.4km/h 64% 0in /  0.0mm 276 W/m2
11:54 75.6 °F /  24.2 °C 63 °F /  17.2 °C 29.8in /  1009.1hPa Calm   2mph /  3.2km/h 65% 0in /  0.0mm 369 W/m2
11:59 75.6 °F /  24.2 °C 63 °F /  17.2 °C 29.8in /  1009.1hPa WNW 2mph /  3.2km/h 8mph /  12.9km/h 65% 0in /  0.0mm 380 W/m2
12:04 75.4 °F /  24.1 °C 63.1 °F /  17.3 °C 29.8in /  1009.1hPa WSW 0.9mph /  1.4km/h 7mph /  11.3km/h 66% 0in /  0.0mm 287 W/m2
12:09 75.4 °F /  24.1 °C 63.1 °F /  17.3 °C 29.8in /  1009.5hPa NW 0.9mph /  1.4km/h 3mph /  4.8km/h 66% 0in /  0.0mm 285 W/m2
12:14 75.4 °F /  24.1 °C 63.1 °F /  17.3 °C 29.8in /  1009.1hPa NW 2.9mph /  4.7km/h 8mph /  12.9km/h 66% 0in /  0.0mm 345 W/m2
12:19 75.2 °F /  24 °C 63.1 °F /  17.3 °C 29.8in /  1009.1hPa NW 4mph /  6.4km/h 5mph /  8km/h 66% 0in /  0.0mm 355 W/m2
12:24 75.2 °F /  24 °C 63.5 °F /  17.5 °C 29.8in /  1009.1hPa NE 2mph /  3.2km/h 3mph /  4.8km/h 67% 0in /  0.0mm 580 W/m2
12:29 75.6 °F /  24.2 °C 63.3 °F /  17.4 °C 29.8in /  1009.1hPa North 4mph /  6.4km/h 5mph /  8km/h 66% 0in /  0.0mm 879 W/m2
12:34 76.5 °F /  24.7 °C 63.3 °F /  17.4 °C 29.8in /  1009.1hPa West 4mph /  6.4km/h 4mph /  6.4km/h 64% 0in /  0.0mm 803 W/m2
12:39 77.4 °F /  25.2 °C 63.9 °F /  17.7 °C 29.8in /  1009.1hPa ENE 2.9mph /  4.7km/h 5mph /  8km/h 63% 0in /  0.0mm 682 W/m2
12:44 77.5 °F /  25.3 °C 63 °F /  17.2 °C 29.8in /  1009.1hPa NW 2mph /  3.2km/h 3mph /  4.8km/h 61% 0in /  0.0mm 320 W/m2
12:49 77.5 °F /  25.3 °C 63.5 °F /  17.5 °C 29.8in /  1009.1hPa West 4mph /  6.4km/h 4mph /  6.4km/h 62% 0in /  0.0mm 306 W/m2
12:54 77.5 °F /  25.3 °C 63.5 °F /  17.5 °C 29.8in /  1009.1hPa WSW 0.9mph /  1.4km/h 4mph /  6.4km/h 62% 0in /  0.0mm 381 W/m2
12:59 77.7 °F /  25.4 °C 63.7 °F /  17.6 °C 29.8in /  1009.1hPa SE 2.9mph /  4.7km/h 3mph /  4.8km/h 62% 0in /  0.0mm 362 W/m2
13:04 77.7 °F /  25.4 °C 63.1 °F /  17.3 °C 29.8in /  1009.1hPa SW 0.9mph /  1.4km/h 2mph /  3.2km/h 61% 0in /  0.0mm 396 W/m2
13:09 78.3 °F /  25.7 °C 63.3 °F /  17.4 °C 29.8in /  1009.1hPa WNW 6mph /  9.7km/h 7mph /  11.3km/h 60% 0in /  0.0mm 334 W/m2
13:14 78.1 °F /  25.6 °C 62.1 °F /  16.7 °C 29.8in /  1009.5hPa WNW 2.9mph /  4.7km/h 5mph /  8km/h 58% 0in /  0.0mm 294 W/m2
13:19 77.7 °F /  25.4 °C 62.2 °F /  16.8 °C 29.8in /  1009.5hPa North 0.9mph /  1.4km/h 3mph /  4.8km/h 59% 0in /  0.0mm 278 W/m2
13:24 77.7 °F /  25.4 °C 60.8 °F /  16 °C 29.8in /  1009.5hPa West 2.9mph /  4.7km/h 6mph /  9.7km/h 56% 0in /  0.0mm 306 W/m2
13:29 77.7 °F /  25.4 °C 61.7 °F /  16.5 °C 29.8in /  1009.5hPa NNW 2.9mph /  4.7km/h 7mph /  11.3km/h 58% 0in /  0.0mm 350 W/m2
13:34 77.7 °F /  25.4 °C 62.8 °F /  17.1 °C 29.8in /  1009.5hPa WNW 8.1mph /  13km/h 9mph /  14.5km/h 60% 0in /  0.0mm 246 W/m2
13:39 77.4 °F /  25.2 °C 61.9 °F /  16.6 °C 29.8in /  1009.5hPa WNW 6mph /  9.7km/h 6mph /  9.7km/h 59% 0in /  0.0mm 243 W/m2
13:44 77 °F /  25 °C 63 °F /  17.2 °C 29.8in /  1009.5hPa WNW 2mph /  3.2km/h 3mph /  4.8km/h 62% 0in /  0.0mm 281 W/m2
13:49 77.2 °F /  25.1 °C 62.6 °F /  17 °C 29.8in /  1009.5hPa NW 4mph /  6.4km/h 5mph /  8km/h 61% 0in /  0.0mm 330 W/m2
13:54 77.5 °F /  25.3 °C 63.5 °F /  17.5 °C 29.8in /  1009.5hPa WSW 2.9mph /  4.7km/h 5mph /  8km/h 62% 0in /  0.0mm 408 W/m2
13:59 77.7 °F /  25.4 °C 63.7 °F /  17.6 °C 29.8in /  1009.5hPa NNW 4mph /  6.4km/h 4mph /  6.4km/h 62% 0in /  0.0mm 932 W/m2
14:04 77.9 °F /  25.5 °C 63 °F /  17.2 °C 29.8in /  1009.5hPa WNW 4mph /  6.4km/h 8mph /  12.9km/h 60% 0in /  0.0mm 230 W/m2
14:09 78.3 °F /  25.7 °C 63.3 °F /  17.4 °C 29.8in /  1009.5hPa NW 2.9mph /  4.7km/h 6mph /  9.7km/h 60% 0in /  0.0mm 923 W/m2
14:14 78.4 °F /  25.8 °C 63.3 °F /  17.4 °C 29.8in /  1009.5hPa NNW 0.9mph /  1.4km/h 8mph /  12.9km/h 60% 0in /  0.0mm 923 W/m2
14:19 78.8 °F /  26 °C 62.2 °F /  16.8 °C 29.8in /  1009.5hPa West 2.9mph /  4.7km/h 9mph /  14.5km/h 57% 0in /  0.0mm 895 W/m2
14:24 79.2 °F /  26.2 °C 62.1 °F /  16.7 °C 29.8in /  1009.5hPa NNW 2.9mph /  4.7km/h 5mph /  8km/h 56% 0in /  0.0mm 884 W/m2
14:29 79.3 °F /  26.3 °C 61.7 °F /  16.5 °C 29.8in /  1009.5hPa NNW 0.9mph /  1.4km/h 9mph /  14.5km/h 55% 0in /  0.0mm 272 W/m2
14:34 79.7 °F /  26.5 °C 62.1 °F /  16.7 °C 29.8in /  1009.5hPa West 0.9mph /  1.4km/h 5mph /  8km/h 55% 0in /  0.0mm 835 W/m2
14:39 79.9 °F /  26.6 °C 61.7 °F /  16.5 °C 29.8in /  1009.5hPa SE 2mph /  3.2km/h 6mph /  9.7km/h 54% 0in /  0.0mm 933 W/m2
14:44 80.2 °F /  26.8 °C 61.5 °F /  16.4 °C 29.8in /  1009.5hPa West 2.9mph /  4.7km/h 4mph /  6.4km/h 53% 0in /  0.0mm 900 W/m2
14:49 80.6 °F /  27 °C 60.8 °F /  16 °C 29.8in /  1009.5hPa West 4mph /  6.4km/h 8mph /  12.9km/h 51% 0in /  0.0mm 916 W/m2
14:54 80.2 °F /  26.8 °C 61 °F /  16.1 °C 29.8in /  1009.1hPa West 2.9mph /  4.7km/h 6mph /  9.7km/h 52% 0in /  0.0mm 202 W/m2
14:59 80.1 °F /  26.7 °C 61.3 °F /  16.3 °C 29.8in /  1009.1hPa West 4mph /  6.4km/h 8mph /  12.9km/h 53% 0in /  0.0mm 981 W/m2
15:04 80.1 °F /  26.7 °C 61.3 °F /  16.3 °C 29.8in /  1009.1hPa West 2mph /  3.2km/h 7mph /  11.3km/h 53% 0in /  0.0mm 262 W/m2
15:09 80.1 °F /  26.7 °C 61.3 °F /  16.3 °C 29.8in /  1009.1hPa ESE 0.9mph /  1.4km/h 2mph /  3.2km/h 53% 0in /  0.0mm 993 W/m2
15:14 80.4 °F /  26.9 °C 60.1 °F /  15.6 °C 29.8in /  1009.1hPa West 2mph /  3.2km/h 6mph /  9.7km/h 50% 0in /  0.0mm 214 W/m2
15:19 80.2 °F /  26.8 °C 59.9 °F /  15.5 °C 29.8in /  1008.8hPa West 0.9mph /  1.4km/h 7mph /  11.3km/h 50% 0in /  0.0mm 188 W/m2
15:24 80.2 °F /  26.8 °C 59.9 °F /  15.5 °C 29.8in /  1008.8hPa West 0.9mph /  1.4km/h 5mph /  8km/h 50% 0in /  0.0mm 816 W/m2
15:29 80.8 °F /  27.1 °C 60.4 °F /  15.8 °C 29.8in /  1008.8hPa West 0.9mph /  1.4km/h 5mph /  8km/h 50% 0in /  0.0mm 809 W/m2
15:34 81.3 °F /  27.4 °C 60.3 °F /  15.7 °C 29.8in /  1008.8hPa NW 4.9mph /  7.9km/h 7mph /  11.3km/h 49% 0in /  0.0mm 758 W/m2
15:39 81.3 °F /  27.4 °C 60.3 °F /  15.7 °C 29.8in /  1008.8hPa ENE 4.9mph /  7.9km/h 5mph /  8km/h 49% 0in /  0.0mm 844 W/m2
15:44 81.7 °F /  27.6 °C 60.1 °F /  15.6 °C 29.8in /  1008.8hPa East 2mph /  3.2km/h 3mph /  4.8km/h 48% 0in /  0.0mm 830 W/m2
15:49 81.9 °F /  27.7 °C 59.7 °F /  15.4 °C 29.8in /  1008.8hPa East 0.9mph /  1.4km/h 4mph /  6.4km/h 47% 0in /  0.0mm 770 W/m2
15:54 82.2 °F /  27.9 °C 59.4 °F /  15.2 °C 29.8in /  1008.8hPa SE 0.9mph /  1.4km/h 8mph /  12.9km/h 46% 0in /  0.0mm 770 W/m2
15:59 82.8 °F /  28.2 °C 59.9 °F /  15.5 °C 29.8in /  1008.8hPa SSE 2mph /  3.2km/h 4mph /  6.4km/h 46% 0in /  0.0mm 747 W/m2
16:04 82.4 °F /  28 °C 59.5 °F /  15.3 °C 29.8in /  1008.8hPa NW 2.9mph /  4.7km/h 3mph /  4.8km/h 46% 0in /  0.0mm 169 W/m2
16:09 82 °F /  27.8 °C 59.2 °F /  15.1 °C 29.8in /  1008.8hPa West 0.9mph /  1.4km/h 6mph /  9.7km/h 46% 0in /  0.0mm 141 W/m2
16:14 81.3 °F /  27.4 °C 59.2 °F /  15.1 °C 29.8in /  1008.5hPa NNW 2mph /  3.2km/h 2mph /  3.2km/h 47% 0in /  0.0mm 192 W/m2
16:19 81.1 °F /  27.3 °C 59.5 °F /  15.3 °C 29.8in /  1008.5hPa WNW 2mph /  3.2km/h 6mph /  9.7km/h 48% 0in /  0.0mm 160 W/m2
16:24 80.8 °F /  27.1 °C 59.2 °F /  15.1 °C 29.8in /  1008.5hPa Calm   2mph /  3.2km/h 48% 0in /  0.0mm 160 W/m2
16:29 80.2 °F /  26.8 °C 59.4 °F /  15.2 °C 29.8in /  1008.5hPa Calm   2mph /  3.2km/h 49% 0in /  0.0mm 176 W/m2
16:34 80.4 °F /  26.9 °C 59.5 °F /  15.3 °C 29.8in /  1008.5hPa ENE 0.9mph /  1.4km/h 3mph /  4.8km/h 49% 0in /  0.0mm 747 W/m2
16:39 81.3 °F /  27.4 °C 60.3 °F /  15.7 °C 29.8in /  1008.5hPa ESE 2mph /  3.2km/h 3mph /  4.8km/h 49% 0in /  0.0mm 691 W/m2
16:44 82 °F /  27.8 °C 60.4 °F /  15.8 °C 29.8in /  1008.5hPa NE 2mph /  3.2km/h 4mph /  6.4km/h 48% 0in /  0.0mm 722 W/m2
16:49 82.6 °F /  28.1 °C 60.3 °F /  15.7 °C 29.8in /  1008.5hPa SSE 2mph /  3.2km/h 4mph /  6.4km/h 47% 0in /  0.0mm 671 W/m2
16:54 82.6 °F /  28.1 °C 60.3 °F /  15.7 °C 29.8in /  1008.5hPa ESE 4mph /  6.4km/h 8mph /  12.9km/h 47% 0in /  0.0mm 680 W/m2
16:59 82.6 °F /  28.1 °C 60.3 °F /  15.7 °C 29.8in /  1008.5hPa ENE 0.9mph /  1.4km/h 2mph /  3.2km/h 47% 0in /  0.0mm 197 W/m2
17:04 82.8 °F /  28.2 °C 59.9 °F /  15.5 °C 29.8in /  1008.5hPa WNW 0.9mph /  1.4km/h 7mph /  11.3km/h 46% 0in /  0.0mm 585 W/m2
17:09 82.6 °F /  28.1 °C 60.3 °F /  15.7 °C 29.8in /  1008.5hPa WSW 0.9mph /  1.4km/h 4mph /  6.4km/h 47% 0in /  0.0mm 573 W/m2
17:14 82.9 °F /  28.3 °C 60.6 °F /  15.9 °C 29.8in /  1008.5hPa ESE 2mph /  3.2km/h 7mph /  11.3km/h 47% 0in /  0.0mm 550 W/m2
17:19 83.7 °F /  28.7 °C 60.1 °F /  15.6 °C 29.8in /  1008.5hPa SE 0.9mph /  1.4km/h 2mph /  3.2km/h 45% 0in /  0.0mm 545 W/m2
17:24 84 °F /  28.9 °C 59.7 °F /  15.4 °C 29.8in /  1008.8hPa ESE 0.9mph /  1.4km/h 2mph /  3.2km/h 44% 0in /  0.0mm 524 W/m2
17:29 84.4 °F /  29.1 °C 60.1 °F /  15.6 °C 29.8in /  1008.8hPa North 2mph /  3.2km/h 4mph /  6.4km/h 44% 0in /  0.0mm 536 W/m2
17:34 83.8 °F /  28.8 °C 60.3 °F /  15.7 °C 29.8in /  1008.8hPa NW 2mph /  3.2km/h 8mph /  12.9km/h 45% 0in /  0.0mm 543 W/m2
17:39 83.5 °F /  28.6 °C 60.4 °F /  15.8 °C 29.8in /  1008.8hPa WNW 4mph /  6.4km/h 6mph /  9.7km/h 46% 0in /  0.0mm 468 W/m2
17:44 82.9 °F /  28.3 °C 60.1 °F /  15.6 °C 29.8in /  1008.8hPa West 2mph /  3.2km/h 8mph /  12.9km/h 46% 0in /  0.0mm 394 W/m2
17:49 82.8 °F /  28.2 °C 60.4 °F /  15.8 °C 29.8in /  1008.8hPa WSW 4mph /  6.4km/h 6mph /  9.7km/h 47% 0in /  0.0mm 111 W/m2
17:54 82 °F /  27.8 °C 59.9 °F /  15.5 °C 29.8in /  1008.5hPa East 0.9mph /  1.4km/h 3mph /  4.8km/h 47% 0in /  0.0mm 272 W/m2
18:00 81.7 °F /  27.6 °C 60.1 °F /  15.6 °C 29.8in /  1008.5hPa West 0.9mph /  1.4km/h 2mph /  3.2km/h 48% 0in /  0.0mm 220 W/m2
18:05 81.5 °F /  27.5 °C 59.9 °F /  15.5 °C 29.8in /  1008.5hPa SE 0.9mph /  1.4km/h 2mph /  3.2km/h 48% 0in /  0.0mm 230 W/m2
18:10 81.5 °F /  27.5 °C 59.9 °F /  15.5 °C 29.8in /  1008.5hPa Calm   2mph /  3.2km/h 48% 0in /  0.0mm 227 W/m2
18:15 81.7 °F /  27.6 °C 60.1 °F /  15.6 °C 29.8in /  1008.5hPa Calm   4mph /  6.4km/h 48% 0in /  0.0mm 225 W/m2
18:20 81.9 °F /  27.7 °C 60.3 °F /  15.7 °C 29.8in /  1008.5hPa WNW 2.9mph /  4.7km/h 7mph /  11.3km/h 48% 0in /  0.0mm 216 W/m2
18:25 81.9 °F /  27.7 °C 60.3 °F /  15.7 °C 29.8in /  1008.5hPa WSW 2.9mph /  4.7km/h 5mph /  8km/h 48% 0in /  0.0mm 158 W/m2
18:30 81.7 °F /  27.6 °C 60.6 °F /  15.9 °C 29.8in /  1008.5hPa WSW 2.9mph /  4.7km/h 6mph /  9.7km/h 49% 0in /  0.0mm 163 W/m2
18:35 81.3 °F /  27.4 °C 60.3 °F /  15.7 °C 29.8in /  1008.5hPa West 2mph /  3.2km/h 3mph /  4.8km/h 49% 0in /  0.0mm 199 W/m2
18:40 81.1 °F /  27.3 °C 60.1 °F /  15.6 °C 29.8in /  1008.5hPa West 2mph /  3.2km/h 6mph /  9.7km/h 49% 0in /  0.0mm 258 W/m2
18:45 81.3 °F /  27.4 °C 60.3 °F /  15.7 °C 29.8in /  1008.5hPa West 0.9mph /  1.4km/h 3mph /  4.8km/h 49% 0in /  0.0mm 223 W/m2
18:50 81.7 °F /  27.6 °C 60.6 °F /  15.9 °C 29.8in /  1008.5hPa Calm   1mph /  1.6km/h 49% 0in /  0.0mm 200 W/m2
18:55 82 °F /  27.8 °C 61 °F /  16.1 °C 29.8in /  1008.5hPa West 0.9mph /  1.4km/h 4mph /  6.4km/h 49% 0in /  0.0mm 220 W/m2
19:00 82 °F /  27.8 °C 60.4 °F /  15.8 °C 29.8in /  1008.5hPa WNW 2mph /  3.2km/h 4mph /  6.4km/h 48% 0in /  0.0mm 192 W/m2
19:05 81.7 °F /  27.6 °C 60.6 °F /  15.9 °C 29.8in /  1008.5hPa West 2mph /  3.2km/h 5mph /  8km/h 49% 0in /  0.0mm 130 W/m2
19:10 81.3 °F /  27.4 °C 60.3 °F /  15.7 °C 29.8in /  1008.5hPa West 2mph /  3.2km/h 4mph /  6.4km/h 49% 0in /  0.0mm 127 W/m2
19:15 81 °F /  27.2 °C 60.1 °F /  15.6 °C 29.8in /  1008.5hPa West 2.9mph /  4.7km/h 6mph /  9.7km/h 49% 0in /  0.0mm 107 W/m2
19:20 80.8 °F /  27.1 °C 60.4 °F /  15.8 °C 29.8in /  1008.5hPa West 2mph /  3.2km/h 4mph /  6.4km/h 50% 0in /  0.0mm 56 W/m2
19:25 80.4 °F /  26.9 °C 60.6 °F /  15.9 °C 29.8in /  1008.5hPa West 0.9mph /  1.4km/h 4mph /  6.4km/h 51% 0in /  0.0mm 53 W/m2
19:30 80.1 °F /  26.7 °C 60.3 °F /  15.7 °C 29.8in /  1008.5hPa WNW 0.9mph /  1.4km/h 4mph /  6.4km/h 51% 0in /  0.0mm 51 W/m2
19:35 79.9 °F /  26.6 °C 60.6 °F /  15.9 °C 29.8in /  1008.5hPa WNW 2.9mph /  4.7km/h 3mph /  4.8km/h 52% 0in /  0.0mm 47 W/m2
19:40 79.7 °F /  26.5 °C 60.4 °F /  15.8 °C 29.8in /  1008.5hPa West 2mph /  3.2km/h 4mph /  6.4km/h 52% 0in /  0.0mm 49 W/m2
19:45 79.5 °F /  26.4 °C 60.8 °F /  16 °C 29.8in /  1008.5hPa West 2.9mph /  4.7km/h 3mph /  4.8km/h 53% 0in /  0.0mm 56 W/m2
19:50 79.3 °F /  26.3 °C 60.8 °F /  16 °C 29.8in /  1008.5hPa WSW 2.9mph /  4.7km/h 3mph /  4.8km/h 53% 0in /  0.0mm 56 W/m2
19:55 79.2 °F /  26.2 °C 60.6 °F /  15.9 °C 29.8in /  1008.5hPa WSW 2.9mph /  4.7km/h 4mph /  6.4km/h 53% 0in /  0.0mm 53 W/m2
20:00 78.8 °F /  26 °C 60.3 °F /  15.7 °C 29.8in /  1008.5hPa West 2.9mph /  4.7km/h 3mph /  4.8km/h 53% 0in /  0.0mm 47 W/m2
20:05 78.6 °F /  25.9 °C 60.6 °F /  15.9 °C 29.8in /  1008.5hPa West 2.9mph /  4.7km/h 3mph /  4.8km/h 54% 0in /  0.0mm 44 W/m2
20:10 78.4 °F /  25.8 °C 60.4 °F /  15.8 °C 29.8in /  1008.8hPa West 2mph /  3.2km/h 3mph /  4.8km/h 54% 0in /  0.0mm 42 W/m2
20:15 78.3 °F /  25.7 °C 60.3 °F /  15.7 °C 29.8in /  1008.8hPa West 2mph /  3.2km/h 3mph /  4.8km/h 54% 0in /  0.0mm 37 W/m2
20:20 77.9 °F /  25.5 °C 60.4 °F /  15.8 °C 29.8in /  1008.8hPa West 2mph /  3.2km/h 3mph /  4.8km/h 55% 0in /  0.0mm 30 W/m2
20:25 77.7 °F /  25.4 °C 60.8 °F /  16 °C 29.8in /  1009.1hPa WSW 2mph /  3.2km/h 3mph /  4.8km/h 56% 0in /  0.0mm 21 W/m2
20:30 77.4 °F /  25.2 °C 59.9 °F /  15.5 °C 29.8in /  1009.1hPa West 2mph /  3.2km/h 4mph /  6.4km/h 55% 0in /  0.0mm 16 W/m2
20:35 77.4 °F /  25.2 °C 59.9 °F /  15.5 °C 29.8in /  1009.1hPa WSW 4mph /  6.4km/h 4mph /  6.4km/h 55% 0in /  0.0mm 12 W/m2
20:40 77.2 °F /  25.1 °C 59.7 °F /  15.4 °C 29.8in /  1009.1hPa WSW 2.9mph /  4.7km/h 4mph /  6.4km/h 55% 0in /  0.0mm 9 W/m2
20:45 76.8 °F /  24.9 °C 59.4 °F /  15.2 °C 29.8in /  1009.1hPa WSW 2.9mph /  4.7km/h 3mph /  4.8km/h 55% 0in /  0.0mm 5 W/m2
20:50 76.6 °F /  24.8 °C 59.7 °F /  15.4 °C 29.8in /  1009.1hPa West 2mph /  3.2km/h 2mph /  3.2km/h 56% 0in /  0.0mm 0 W/m2
20:55 76.5 °F /  24.7 °C 60.1 °F /  15.6 °C 29.8in /  1009.1hPa West 0.9mph /  1.4km/h 2mph /  3.2km/h 57% 0in /  0.0mm 0 W/m2
21:00 75.9 °F /  24.4 °C 60.1 °F /  15.6 °C 29.8in /  1009.1hPa West 2mph /  3.2km/h 2mph /  3.2km/h 58% 0in /  0.0mm 0 W/m2
21:05 75.7 °F /  24.3 °C 59.9 °F /  15.5 °C 29.8in /  1009.5hPa West 0.9mph /  1.4km/h 2mph /  3.2km/h 58% 0in /  0.0mm 0 W/m2
21:10 75.4 °F /  24.1 °C 60.1 °F /  15.6 °C 29.8in /  1009.5hPa WSW 2mph /  3.2km/h 3mph /  4.8km/h 59% 0in /  0.0mm 0 W/m2
21:15 75.2 °F /  24 °C 59.4 °F /  15.2 °C 29.8in /  1009.5hPa WSW 0.9mph /  1.4km/h 4mph /  6.4km/h 58% 0in /  0.0mm 0 W/m2
21:20 75 °F /  23.9 °C 59.7 °F /  15.4 °C 29.8in /  1009.8hPa WSW 2mph /  3.2km/h 4mph /  6.4km/h 59% 0in /  0.0mm 0 W/m2
21:25 75 °F /  23.9 °C 59.2 °F /  15.1 °C 29.8in /  1009.8hPa WSW 2.9mph /  4.7km/h 4mph /  6.4km/h 58% 0in /  0.0mm 0 W/m2
21:30 75 °F /  23.9 °C 59.2 °F /  15.1 °C 29.8in /  1009.8hPa WNW 4mph /  6.4km/h 6mph /  9.7km/h 58% 0in /  0.0mm 0 W/m2
21:35 75.2 °F /  24 °C 59.9 °F /  15.5 °C 29.8in /  1009.8hPa West 0.9mph /  1.4km/h 3mph /  4.8km/h 59% 0in /  0.0mm 0 W/m2
21:40 75 °F /  23.9 °C 59.7 °F /  15.4 °C 29.8in /  1010.2hPa West 0.9mph /  1.4km/h 2mph /  3.2km/h 59% 0in /  0.0mm 0 W/m2
21:45 74.8 °F /  23.8 °C 60.1 °F /  15.6 °C 29.8in /  1010.2hPa WSW 2mph /  3.2km/h 3mph /  4.8km/h 60% 0in /  0.0mm 0 W/m2
21:50 74.7 °F /  23.7 °C 59.9 °F /  15.5 °C 29.8in /  1010.2hPa West 2mph /  3.2km/h 4mph /  6.4km/h 60% 0in /  0.0mm 0 W/m2
21:55 74.5 °F /  23.6 °C 60.1 °F /  15.6 °C 29.8in /  1009.8hPa West 2.9mph /  4.7km/h 3mph /  4.8km/h 61% 0in /  0.0mm 0 W/m2
22:00 74.5 °F /  23.6 °C 60.1 °F /  15.6 °C 29.8in /  1010.2hPa West 0.9mph /  1.4km/h 3mph /  4.8km/h 61% 0in /  0.0mm 0 W/m2
22:05 74.1 °F /  23.4 °C 60.3 °F /  15.7 °C 29.8in /  1009.8hPa West 2.9mph /  4.7km/h 4mph /  6.4km/h 62% 0in /  0.0mm 0 W/m2
22:10 73.9 °F /  23.3 °C 60.1 °F /  15.6 °C 29.8in /  1009.8hPa West 2.9mph /  4.7km/h 3mph /  4.8km/h 62% 0in /  0.0mm 0 W/m2
22:15 73.9 °F /  23.3 °C 60.1 °F /  15.6 °C 29.8in /  1009.8hPa West 2.9mph /  4.7km/h 3mph /  4.8km/h 62% 0in /  0.0mm 0 W/m2
22:20 73.9 °F /  23.3 °C 60.1 °F /  15.6 °C 29.8in /  1010.2hPa West 2mph /  3.2km/h 4mph /  6.4km/h 62% 0in /  0.0mm 0 W/m2
22:25 73.8 °F /  23.2 °C 59.9 °F /  15.5 °C 29.8in /  1009.8hPa WSW 2mph /  3.2km/h 3mph /  4.8km/h 62% 0in /  0.0mm 0 W/m2
22:30 73.8 °F /  23.2 °C 59.9 °F /  15.5 °C 29.8in /  1010.2hPa West 0.9mph /  1.4km/h 2mph /  3.2km/h 62% 0in /  0.0mm 0 W/m2
22:35 73.6 °F /  23.1 °C 59.7 °F /  15.4 °C 29.8in /  1010.2hPa Calm   1mph /  1.6km/h 62% 0in /  0.0mm 0 W/m2
22:40 73.6 °F /  23.1 °C 60.3 °F /  15.7 °C 29.8in /  1009.8hPa WNW 2mph /  3.2km/h 2mph /  3.2km/h 63% 0in /  0.0mm 0 W/m2
22:45 73 °F /  22.8 °C 60.1 °F /  15.6 °C 29.8in /  1009.8hPa WSW 2.9mph /  4.7km/h 3mph /  4.8km/h 64% 0in /  0.0mm 0 W/m2
22:50 72.9 °F /  22.7 °C 59.9 °F /  15.5 °C 29.8in /  1009.8hPa West 0.9mph /  1.4km/h 5mph /  8km/h 64% 0in /  0.0mm 0 W/m2
22:55 72.7 °F /  22.6 °C 59.7 °F /  15.4 °C 29.8in /  1009.8hPa SW 0.9mph /  1.4km/h 3mph /  4.8km/h 64% 0in /  0.0mm 0 W/m2
23:00 72.7 °F /  22.6 °C 59.7 °F /  15.4 °C 29.8in /  1010.2hPa West 2mph /  3.2km/h 5mph /  8km/h 64% 0in /  0.0mm 0 W/m2
23:05 72.7 °F /  22.6 °C 59.7 °F /  15.4 °C 29.8in /  1010.2hPa West 2mph /  3.2km/h 3mph /  4.8km/h 64% 0in /  0.0mm 0 W/m2
23:10 72.7 °F /  22.6 °C 59.7 °F /  15.4 °C 29.8in /  1010.2hPa West 2mph /  3.2km/h 4mph /  6.4km/h 64% 0in /  0.0mm 0 W/m2
23:15 72.7 °F /  22.6 °C 59.7 °F /  15.4 °C 29.8in /  1010.2hPa West 2mph /  3.2km/h 3mph /  4.8km/h 64% 0in /  0.0mm 0 W/m2
23:20 72.7 °F /  22.6 °C 60.3 °F /  15.7 °C 29.8in /  1010.2hPa WSW 2mph /  3.2km/h 4mph /  6.4km/h 65% 0in /  0.0mm 0 W/m2
23:25 72.5 °F /  22.5 °C 60.1 °F /  15.6 °C 29.8in /  1010.2hPa West 2.9mph /  4.7km/h 4mph /  6.4km/h 65% 0in /  0.0mm 0 W/m2
23:30 72.3 °F /  22.4 °C 59.9 °F /  15.5 °C 29.8in /  1010.2hPa West 2mph /  3.2km/h 3mph /  4.8km/h 65% 0in /  0.0mm 0 W/m2
23:35 72.3 °F /  22.4 °C 59.9 °F /  15.5 °C 29.8in /  1010.2hPa WSW 0.9mph /  1.4km/h 2mph /  3.2km/h 65% 0in /  0.0mm 0 W/m2
23:40 72.3 °F /  22.4 °C 59.9 °F /  15.5 °C 29.8in /  1010.2hPa WSW 2mph /  3.2km/h 3mph /  4.8km/h 65% 0in /  0.0mm 0 W/m2
23:45 72.1 °F /  22.3 °C 59.7 °F /  15.4 °C 29.8in /  1010.2hPa WSW 2mph /  3.2km/h 4mph /  6.4km/h 65% 0in /  0.0mm 0 W/m2
23:50 72 °F /  22.2 °C 59.9 °F /  15.5 °C 29.8in /  1010.2hPa West 4mph /  6.4km/h 4mph /  6.4km/h 66% 0in /  0.0mm 0 W/m2
23:55 71.8 °F /  22.1 °C 59.7 °F /  15.4 °C 29.8in /  1010.2hPa WSW 2.9mph /  4.7km/h 4mph /  6.4km/h 66% 0in /  0.0mm 0 W/m2
Juneau County Weather
Compliments of Weather Underground - 4 mb